sensor_id;sensor_type;location;lat;lon;timestamp;P1;durP1;ratioP1;P2;durP2;ratioP2
23474;SDS011;11910;52.086;21.066;2022-10-16T00:02:21;23.65;;;19.15;;
23474;SDS011;11910;52.086;21.066;2022-10-16T00:04:46;24.73;;;18.83;;
23474;SDS011;11910;52.086;21.066;2022-10-16T00:07:12;26.15;;;18.25;;
23474;SDS011;11910;52.086;21.066;2022-10-16T00:09:37;25.85;;;19.00;;
23474;SDS011;11910;52.086;21.066;2022-10-16T00:12:03;24.10;;;19.45;;
23474;SDS011;11910;52.086;21.066;2022-10-16T00:14:31;23.50;;;19.65;;
23474;SDS011;11910;52.086;21.066;2022-10-16T00:16:57;25.60;;;20.38;;
23474;SDS011;11910;52.086;21.066;2022-10-16T00:19:22;24.85;;;19.75;;
23474;SDS011;11910;52.086;21.066;2022-10-16T00:21:48;24.50;;;19.83;;
23474;SDS011;11910;52.086;21.066;2022-10-16T00:24:13;25.08;;;20.23;;
23474;SDS011;11910;52.086;21.066;2022-10-16T00:26:39;26.25;;;20.23;;
23474;SDS011;11910;52.086;21.066;2022-10-16T00:29:07;25.58;;;19.95;;
23474;SDS011;11910;52.086;21.066;2022-10-16T00:31:33;28.42;;;21.08;;
23474;SDS011;11910;52.086;21.066;2022-10-16T00:33:59;27.83;;;20.40;;
23474;SDS011;11910;52.086;21.066;2022-10-16T00:36:25;28.33;;;21.23;;
23474;SDS011;11910;52.086;21.066;2022-10-16T00:38:54;26.40;;;20.30;;
23474;SDS011;11910;52.086;21.066;2022-10-16T00:41:23;28.38;;;20.60;;
23474;SDS011;11910;52.086;21.066;2022-10-16T00:43:53;26.55;;;20.65;;
23474;SDS011;11910;52.086;21.066;2022-10-16T00:46:25;24.70;;;20.42;;
23474;SDS011;11910;52.086;21.066;2022-10-16T00:49:01;25.23;;;20.95;;
23474;SDS011;11910;52.086;21.066;2022-10-16T00:51:35;26.20;;;21.35;;
23474;SDS011;11910;52.086;21.066;2022-10-16T00:54:13;24.10;;;20.30;;
23474;SDS011;11910;52.086;21.066;2022-10-16T00:56:47;24.40;;;20.17;;
23474;SDS011;11910;52.086;21.066;2022-10-16T00:59:18;27.10;;;21.27;;
23474;SDS011;11910;52.086;21.066;2022-10-16T01:02:06;28.10;;;21.33;;
23474;SDS011;11910;52.086;21.066;2022-10-16T01:04:38;30.77;;;22.10;;
23474;SDS011;11910;52.086;21.066;2022-10-16T01:12:40;28.27;;;22.13;;
23474;SDS011;11910;52.086;21.066;2022-10-16T01:20:56;25.88;;;20.80;;
23474;SDS011;11910;52.086;21.066;2022-10-16T01:29:34;27.40;;;21.27;;
23474;SDS011;11910;52.086;21.066;2022-10-16T01:32:20;30.67;;;22.33;;
23474;SDS011;11910;52.086;21.066;2022-10-16T01:34:58;27.73;;;22.65;;
23474;SDS011;11910;52.086;21.066;2022-10-16T01:37:45;27.37;;;21.43;;
23474;SDS011;11910;52.086;21.066;2022-10-16T01:40:16;26.88;;;21.67;;
23474;SDS011;11910;52.086;21.066;2022-10-16T01:42:46;26.80;;;23.15;;
23474;SDS011;11910;52.086;21.066;2022-10-16T01:45:17;31.67;;;23.85;;
23474;SDS011;11910;52.086;21.066;2022-10-16T01:47:45;25.13;;;20.38;;
23474;SDS011;11910;52.086;21.066;2022-10-16T01:50:13;29.35;;;21.88;;
23474;SDS011;11910;52.086;21.066;2022-10-16T01:52:42;28.05;;;21.58;;
23474;SDS011;11910;52.086;21.066;2022-10-16T01:55:12;29.80;;;22.55;;
23474;SDS011;11910;52.086;21.066;2022-10-16T01:57:41;28.20;;;22.50;;
23474;SDS011;11910;52.086;21.066;2022-10-16T02:00:12;28.88;;;22.92;;
23474;SDS011;11910;52.086;21.066;2022-10-16T02:02:40;28.55;;;22.95;;
23474;SDS011;11910;52.086;21.066;2022-10-16T02:07:46;27.67;;;22.05;;
23474;SDS011;11910;52.086;21.066;2022-10-16T02:10:12;30.55;;;21.75;;
23474;SDS011;11910;52.086;21.066;2022-10-16T02:12:39;26.98;;;22.45;;
23474;SDS011;11910;52.086;21.066;2022-10-16T02:15:09;30.48;;;24.58;;
23474;SDS011;11910;52.086;21.066;2022-10-16T02:17:35;28.05;;;22.20;;
23474;SDS011;11910;52.086;21.066;2022-10-16T02:20:01;25.85;;;21.38;;
23474;SDS011;11910;52.086;21.066;2022-10-16T02:22:33;29.85;;;23.60;;
23474;SDS011;11910;52.086;21.066;2022-10-16T02:25:30;30.23;;;23.60;;
23474;SDS011;11910;52.086;21.066;2022-10-16T02:28:14;28.85;;;24.42;;
23474;SDS011;11910;52.086;21.066;2022-10-16T02:30:45;30.10;;;23.85;;
23474;SDS011;11910;52.086;21.066;2022-10-16T02:33:16;26.55;;;22.25;;
23474;SDS011;11910;52.086;21.066;2022-10-16T02:35:44;33.42;;;25.73;;
23474;SDS011;11910;52.086;21.066;2022-10-16T02:38:12;34.53;;;24.25;;
23474;SDS011;11910;52.086;21.066;2022-10-16T02:40:39;29.33;;;24.25;;
23474;SDS011;11910;52.086;21.066;2022-10-16T02:43:06;28.08;;;23.15;;
23474;SDS011;11910;52.086;21.066;2022-10-16T02:45:32;28.50;;;23.98;;
23474;SDS011;11910;52.086;21.066;2022-10-16T02:47:58;26.30;;;23.00;;
23474;SDS011;11910;52.086;21.066;2022-10-16T02:50:24;30.38;;;23.60;;
23474;SDS011;11910;52.086;21.066;2022-10-16T02:52:50;28.52;;;22.88;;
23474;SDS011;11910;52.086;21.066;2022-10-16T02:55:15;31.23;;;25.38;;
23474;SDS011;11910;52.086;21.066;2022-10-16T02:57:41;26.83;;;23.00;;
23474;SDS011;11910;52.086;21.066;2022-10-16T03:00:08;29.63;;;24.95;;
23474;SDS011;11910;52.086;21.066;2022-10-16T03:02:37;30.50;;;23.40;;
23474;SDS011;11910;52.086;21.066;2022-10-16T03:05:03;27.02;;;22.00;;
23474;SDS011;11910;52.086;21.066;2022-10-16T03:07:29;26.52;;;20.80;;
23474;SDS011;11910;52.086;21.066;2022-10-16T03:09:54;26.27;;;21.95;;
23474;SDS011;11910;52.086;21.066;2022-10-16T03:12:20;25.98;;;22.10;;
23474;SDS011;11910;52.086;21.066;2022-10-16T03:14:46;23.58;;;20.05;;
23474;SDS011;11910;52.086;21.066;2022-10-16T03:17:12;27.15;;;20.98;;
23474;SDS011;11910;52.086;21.066;2022-10-16T03:19:38;26.65;;;21.08;;
23474;SDS011;11910;52.086;21.066;2022-10-16T03:22:04;27.27;;;21.67;;
23474;SDS011;11910;52.086;21.066;2022-10-16T03:24:30;24.42;;;20.40;;
23474;SDS011;11910;52.086;21.066;2022-10-16T03:26:55;24.00;;;20.00;;
23474;SDS011;11910;52.086;21.066;2022-10-16T03:29:21;23.88;;;20.38;;
23474;SDS011;11910;52.086;21.066;2022-10-16T03:31:46;26.10;;;19.52;;
23474;SDS011;11910;52.086;21.066;2022-10-16T03:34:14;23.35;;;19.90;;
23474;SDS011;11910;52.086;21.066;2022-10-16T03:36:40;24.48;;;19.95;;
23474;SDS011;11910;52.086;21.066;2022-10-16T03:39:05;27.73;;;20.55;;
23474;SDS011;11910;52.086;21.066;2022-10-16T03:41:31;23.95;;;19.05;;
23474;SDS011;11910;52.086;21.066;2022-10-16T03:43:57;28.00;;;20.15;;
23474;SDS011;11910;52.086;21.066;2022-10-16T03:46:22;23.50;;;19.98;;
23474;SDS011;11910;52.086;21.066;2022-10-16T03:48:48;22.27;;;19.20;;
23474;SDS011;11910;52.086;21.066;2022-10-16T03:51:13;26.23;;;19.90;;
23474;SDS011;11910;52.086;21.066;2022-10-16T03:53:39;24.30;;;19.52;;
23474;SDS011;11910;52.086;21.066;2022-10-16T03:56:05;23.48;;;18.55;;
23474;SDS011;11910;52.086;21.066;2022-10-16T03:58:30;22.55;;;19.17;;
23474;SDS011;11910;52.086;21.066;2022-10-16T04:00:56;24.67;;;20.17;;
23474;SDS011;11910;52.086;21.066;2022-10-16T04:03:22;24.38;;;19.30;;
23474;SDS011;11910;52.086;21.066;2022-10-16T04:05:48;23.38;;;18.52;;
23474;SDS011;11910;52.086;21.066;2022-10-16T04:08:14;22.73;;;19.13;;
23474;SDS011;11910;52.086;21.066;2022-10-16T04:10:41;23.30;;;19.10;;
23474;SDS011;11910;52.086;21.066;2022-10-16T04:13:08;21.75;;;18.60;;
23474;SDS011;11910;52.086;21.066;2022-10-16T04:15:34;23.00;;;18.65;;
23474;SDS011;11910;52.086;21.066;2022-10-16T04:18:00;25.17;;;19.77;;
23474;SDS011;11910;52.086;21.066;2022-10-16T04:20:25;27.48;;;19.58;;
23474;SDS011;11910;52.086;21.066;2022-10-16T04:22:51;25.00;;;19.13;;
23474;SDS011;11910;52.086;21.066;2022-10-16T04:25:17;25.55;;;19.15;;
23474;SDS011;11910;52.086;21.066;2022-10-16T04:27:42;23.80;;;18.35;;
23474;SDS011;11910;52.086;21.066;2022-10-16T04:30:08;22.95;;;19.48;;
23474;SDS011;11910;52.086;21.066;2022-10-16T04:32:34;22.88;;;19.20;;
23474;SDS011;11910;52.086;21.066;2022-10-16T04:35:00;22.20;;;19.27;;
23474;SDS011;11910;52.086;21.066;2022-10-16T04:37:25;24.10;;;19.40;;
23474;SDS011;11910;52.086;21.066;2022-10-16T04:39:52;21.27;;;16.37;;
23474;SDS011;11910;52.086;21.066;2022-10-16T04:42:18;21.75;;;18.10;;
23474;SDS011;11910;52.086;21.066;2022-10-16T04:44:44;22.35;;;17.02;;
23474;SDS011;11910;52.086;21.066;2022-10-16T04:47:10;22.52;;;20.10;;
23474;SDS011;11910;52.086;21.066;2022-10-16T04:49:35;23.45;;;19.77;;
23474;SDS011;11910;52.086;21.066;2022-10-16T04:52:01;24.67;;;19.85;;
23474;SDS011;11910;52.086;21.066;2022-10-16T04:54:26;23.10;;;19.15;;
23474;SDS011;11910;52.086;21.066;2022-10-16T04:56:52;24.38;;;19.73;;
23474;SDS011;11910;52.086;21.066;2022-10-16T04:59:18;23.67;;;19.10;;
23474;SDS011;11910;52.086;21.066;2022-10-16T05:01:45;22.90;;;19.02;;
23474;SDS011;11910;52.086;21.066;2022-10-16T05:04:10;21.15;;;17.08;;
23474;SDS011;11910;52.086;21.066;2022-10-16T05:06:37;21.40;;;17.83;;
23474;SDS011;11910;52.086;21.066;2022-10-16T05:09:03;21.98;;;17.50;;
23474;SDS011;11910;52.086;21.066;2022-10-16T05:11:30;20.00;;;15.93;;
23474;SDS011;11910;52.086;21.066;2022-10-16T05:13:56;24.60;;;19.30;;
23474;SDS011;11910;52.086;21.066;2022-10-16T05:16:22;22.88;;;18.50;;
23474;SDS011;11910;52.086;21.066;2022-10-16T05:18:47;24.88;;;19.63;;
23474;SDS011;11910;52.086;21.066;2022-10-16T05:21:13;24.27;;;19.08;;
23474;SDS011;11910;52.086;21.066;2022-10-16T05:23:38;25.85;;;19.33;;
23474;SDS011;11910;52.086;21.066;2022-10-16T05:26:04;27.80;;;19.88;;
23474;SDS011;11910;52.086;21.066;2022-10-16T05:28:30;23.70;;;19.10;;
23474;SDS011;11910;52.086;21.066;2022-10-16T05:30:56;23.17;;;19.08;;
23474;SDS011;11910;52.086;21.066;2022-10-16T05:33:23;25.42;;;17.73;;
23474;SDS011;11910;52.086;21.066;2022-10-16T05:35:50;24.65;;;18.58;;
23474;SDS011;11910;52.086;21.066;2022-10-16T05:38:16;24.63;;;18.98;;
23474;SDS011;11910;52.086;21.066;2022-10-16T05:40:43;24.55;;;19.63;;
23474;SDS011;11910;52.086;21.066;2022-10-16T05:43:15;25.77;;;20.45;;
23474;SDS011;11910;52.086;21.066;2022-10-16T05:45:40;27.13;;;19.25;;
23474;SDS011;11910;52.086;21.066;2022-10-16T05:48:06;25.67;;;18.48;;
23474;SDS011;11910;52.086;21.066;2022-10-16T05:50:32;24.67;;;18.45;;
23474;SDS011;11910;52.086;21.066;2022-10-16T05:52:57;24.60;;;18.38;;
23474;SDS011;11910;52.086;21.066;2022-10-16T05:55:23;24.20;;;18.55;;
23474;SDS011;11910;52.086;21.066;2022-10-16T05:57:48;23.70;;;18.90;;
23474;SDS011;11910;52.086;21.066;2022-10-16T06:00:14;21.40;;;17.58;;
23474;SDS011;11910;52.086;21.066;2022-10-16T06:02:40;24.42;;;18.73;;
23474;SDS011;11910;52.086;21.066;2022-10-16T06:05:05;21.95;;;18.48;;
23474;SDS011;11910;52.086;21.066;2022-10-16T06:07:33;23.70;;;18.42;;
23474;SDS011;11910;52.086;21.066;2022-10-16T06:10:00;22.00;;;18.27;;
23474;SDS011;11910;52.086;21.066;2022-10-16T06:12:26;21.15;;;18.05;;
23474;SDS011;11910;52.086;21.066;2022-10-16T06:14:52;24.63;;;18.30;;
23474;SDS011;11910;52.086;21.066;2022-10-16T06:17:17;25.20;;;18.38;;
23474;SDS011;11910;52.086;21.066;2022-10-16T06:19:43;22.40;;;17.63;;
23474;SDS011;11910;52.086;21.066;2022-10-16T06:22:09;21.90;;;17.75;;
23474;SDS011;11910;52.086;21.066;2022-10-16T06:24:35;21.67;;;16.75;;
23474;SDS011;11910;52.086;21.066;2022-10-16T06:27:00;23.23;;;18.08;;
23474;SDS011;11910;52.086;21.066;2022-10-16T06:29:27;26.50;;;17.98;;
23474;SDS011;11910;52.086;21.066;2022-10-16T06:31:53;22.45;;;17.95;;
23474;SDS011;11910;52.086;21.066;2022-10-16T06:34:18;23.40;;;17.92;;
23474;SDS011;11910;52.086;21.066;2022-10-16T06:36:44;24.65;;;17.67;;
23474;SDS011;11910;52.086;21.066;2022-10-16T06:39:09;22.77;;;17.52;;
23474;SDS011;11910;52.086;21.066;2022-10-16T06:41:35;22.38;;;17.30;;
23474;SDS011;11910;52.086;21.066;2022-10-16T06:44:04;24.83;;;17.40;;
23474;SDS011;11910;52.086;21.066;2022-10-16T06:46:31;22.02;;;17.52;;
23474;SDS011;11910;52.086;21.066;2022-10-16T06:48:56;22.55;;;18.17;;
23474;SDS011;11910;52.086;21.066;2022-10-16T06:51:22;24.85;;;18.27;;
23474;SDS011;11910;52.086;21.066;2022-10-16T06:53:54;20.05;;;17.00;;
23474;SDS011;11910;52.086;21.066;2022-10-16T06:56:22;23.48;;;16.95;;
23474;SDS011;11910;52.086;21.066;2022-10-16T06:58:49;23.40;;;17.17;;
23474;SDS011;11910;52.086;21.066;2022-10-16T07:01:17;22.73;;;17.30;;
23474;SDS011;11910;52.086;21.066;2022-10-16T07:03:44;21.35;;;16.00;;
23474;SDS011;11910;52.086;21.066;2022-10-16T07:06:11;21.02;;;16.38;;
23474;SDS011;11910;52.086;21.066;2022-10-16T07:08:43;21.25;;;16.67;;
23474;SDS011;11910;52.086;21.066;2022-10-16T07:11:14;20.58;;;17.00;;
23474;SDS011;11910;52.086;21.066;2022-10-16T07:13:42;20.98;;;16.42;;
23474;SDS011;11910;52.086;21.066;2022-10-16T07:16:10;19.48;;;16.52;;
23474;SDS011;11910;52.086;21.066;2022-10-16T07:18:37;20.33;;;17.45;;
23474;SDS011;11910;52.086;21.066;2022-10-16T07:21:08;20.52;;;16.42;;
23474;SDS011;11910;52.086;21.066;2022-10-16T07:23:35;23.85;;;16.30;;
23474;SDS011;11910;52.086;21.066;2022-10-16T07:26:02;23.20;;;16.73;;
23474;SDS011;11910;52.086;21.066;2022-10-16T07:28:28;21.23;;;16.42;;
23474;SDS011;11910;52.086;21.066;2022-10-16T07:30:54;19.90;;;16.58;;
23474;SDS011;11910;52.086;21.066;2022-10-16T07:33:20;21.05;;;16.13;;
23474;SDS011;11910;52.086;21.066;2022-10-16T07:35:52;21.33;;;16.17;;
23474;SDS011;11910;52.086;21.066;2022-10-16T07:38:19;21.85;;;16.75;;
23474;SDS011;11910;52.086;21.066;2022-10-16T07:40:46;20.45;;;16.35;;
23474;SDS011;11910;52.086;21.066;2022-10-16T07:43:14;22.20;;;16.35;;
23474;SDS011;11910;52.086;21.066;2022-10-16T07:45:46;21.35;;;16.52;;
23474;SDS011;11910;52.086;21.066;2022-10-16T07:48:13;17.75;;;15.77;;
23474;SDS011;11910;52.086;21.066;2022-10-16T07:50:39;24.83;;;17.00;;
23474;SDS011;11910;52.086;21.066;2022-10-16T07:53:06;21.85;;;16.05;;
23474;SDS011;11910;52.086;21.066;2022-10-16T07:55:31;22.70;;;16.20;;
23474;SDS011;11910;52.086;21.066;2022-10-16T07:57:57;22.05;;;15.85;;
23474;SDS011;11910;52.086;21.066;2022-10-16T08:00:22;18.60;;;15.40;;
23474;SDS011;11910;52.086;21.066;2022-10-16T08:02:48;17.73;;;15.10;;
23474;SDS011;11910;52.086;21.066;2022-10-16T08:05:14;19.67;;;15.55;;
23474;SDS011;11910;52.086;21.066;2022-10-16T08:07:39;19.48;;;15.50;;
23474;SDS011;11910;52.086;21.066;2022-10-16T08:10:05;21.48;;;15.80;;
23474;SDS011;11910;52.086;21.066;2022-10-16T08:12:43;20.25;;;15.85;;
23474;SDS011;11910;52.086;21.066;2022-10-16T08:15:11;20.75;;;15.57;;
23474;SDS011;11910;52.086;21.066;2022-10-16T08:17:43;17.30;;;14.43;;
23474;SDS011;11910;52.086;21.066;2022-10-16T08:20:09;21.63;;;15.02;;
23474;SDS011;11910;52.086;21.066;2022-10-16T08:22:38;19.98;;;14.60;;
23474;SDS011;11910;52.086;21.066;2022-10-16T08:25:04;18.98;;;13.98;;
23474;SDS011;11910;52.086;21.066;2022-10-16T08:27:36;19.92;;;15.32;;
23474;SDS011;11910;52.086;21.066;2022-10-16T08:30:04;18.80;;;14.90;;
23474;SDS011;11910;52.086;21.066;2022-10-16T08:32:36;18.80;;;14.15;;
23474;SDS011;11910;52.086;21.066;2022-10-16T08:35:16;18.33;;;13.80;;
23474;SDS011;11910;52.086;21.066;2022-10-16T08:37:46;18.02;;;13.93;;
23474;SDS011;11910;52.086;21.066;2022-10-16T08:40:24;16.33;;;13.77;;
23474;SDS011;11910;52.086;21.066;2022-10-16T08:43:15;19.60;;;14.30;;
23474;SDS011;11910;52.086;21.066;2022-10-16T08:45:46;17.92;;;14.02;;
23474;SDS011;11910;52.086;21.066;2022-10-16T08:51:02;17.17;;;13.23;;
23474;SDS011;11910;52.086;21.066;2022-10-16T08:53:43;17.45;;;13.35;;
23474;SDS011;11910;52.086;21.066;2022-10-16T08:56:20;17.88;;;13.48;;
23474;SDS011;11910;52.086;21.066;2022-10-16T08:58:46;14.85;;;13.25;;
23474;SDS011;11910;52.086;21.066;2022-10-16T09:01:13;18.20;;;13.20;;
23474;SDS011;11910;52.086;21.066;2022-10-16T09:12:31;17.98;;;13.50;;
23474;SDS011;11910;52.086;21.066;2022-10-16T09:15:20;17.23;;;13.13;;
23474;SDS011;11910;52.086;21.066;2022-10-16T09:20:32;16.83;;;12.68;;
23474;SDS011;11910;52.086;21.066;2022-10-16T09:23:18;15.43;;;12.32;;
23474;SDS011;11910;52.086;21.066;2022-10-16T09:25:48;16.63;;;12.75;;
23474;SDS011;11910;52.086;21.066;2022-10-16T09:28:15;15.55;;;12.98;;
23474;SDS011;11910;52.086;21.066;2022-10-16T09:30:42;19.45;;;13.10;;
23474;SDS011;11910;52.086;21.066;2022-10-16T09:33:09;16.45;;;13.05;;
23474;SDS011;11910;52.086;21.066;2022-10-16T09:35:37;17.90;;;13.50;;
23474;SDS011;11910;52.086;21.066;2022-10-16T09:38:05;15.30;;;13.20;;
23474;SDS011;11910;52.086;21.066;2022-10-16T09:40:35;18.25;;;13.50;;
23474;SDS011;11910;52.086;21.066;2022-10-16T09:45:31;18.95;;;13.25;;
23474;SDS011;11910;52.086;21.066;2022-10-16T09:47:57;16.17;;;13.13;;
23474;SDS011;11910;52.086;21.066;2022-10-16T09:50:27;16.98;;;13.27;;
23474;SDS011;11910;52.086;21.066;2022-10-16T09:53:03;15.07;;;12.65;;
23474;SDS011;11910;52.086;21.066;2022-10-16T09:55:30;17.75;;;12.88;;
23474;SDS011;11910;52.086;21.066;2022-10-16T09:57:56;17.42;;;12.90;;
23474;SDS011;11910;52.086;21.066;2022-10-16T10:00:24;14.93;;;12.25;;
23474;SDS011;11910;52.086;21.066;2022-10-16T10:02:53;16.38;;;12.25;;
23474;SDS011;11910;52.086;21.066;2022-10-16T10:05:24;18.40;;;12.02;;
23474;SDS011;11910;52.086;21.066;2022-10-16T10:10:50;14.65;;;11.70;;
23474;SDS011;11910;52.086;21.066;2022-10-16T10:13:20;14.05;;;11.63;;
23474;SDS011;11910;52.086;21.066;2022-10-16T10:15:53;13.18;;;11.23;;
23474;SDS011;11910;52.086;21.066;2022-10-16T10:18:28;14.98;;;12.02;;
23474;SDS011;11910;52.086;21.066;2022-10-16T10:20:58;14.95;;;11.15;;
23474;SDS011;11910;52.086;21.066;2022-10-16T10:23:28;14.90;;;11.07;;
23474;SDS011;11910;52.086;21.066;2022-10-16T10:26:00;14.60;;;10.65;;
23474;SDS011;11910;52.086;21.066;2022-10-16T10:31:34;11.85;;;10.63;;
23474;SDS011;11910;52.086;21.066;2022-10-16T10:34:11;14.55;;;10.85;;
23474;SDS011;11910;52.086;21.066;2022-10-16T10:36:59;13.27;;;9.77;;
23474;SDS011;11910;52.086;21.066;2022-10-16T10:39:38;14.07;;;11.13;;
23474;SDS011;11910;52.086;21.066;2022-10-16T10:44:55;13.88;;;10.57;;
23474;SDS011;11910;52.086;21.066;2022-10-16T10:48:42;12.02;;;10.10;;
23474;SDS011;11910;52.086;21.066;2022-10-16T10:50:38;12.88;;;10.65;;
23474;SDS011;11910;52.086;21.066;2022-10-16T10:53:16;11.70;;;10.27;;
23474;SDS011;11910;52.086;21.066;2022-10-16T10:58:35;14.35;;;10.75;;
23474;SDS011;11910;52.086;21.066;2022-10-16T11:01:13;13.68;;;11.30;;
23474;SDS011;11910;52.086;21.066;2022-10-16T11:06:36;16.77;;;10.55;;
23474;SDS011;11910;52.086;21.066;2022-10-16T11:09:09;14.10;;;10.55;;
23474;SDS011;11910;52.086;21.066;2022-10-16T11:11:41;12.88;;;10.60;;
23474;SDS011;11910;52.086;21.066;2022-10-16T11:17:11;13.50;;;10.60;;
23474;SDS011;11910;52.086;21.066;2022-10-16T11:19:51;11.57;;;10.23;;
23474;SDS011;11910;52.086;21.066;2022-10-16T11:22:46;13.60;;;10.90;;
23474;SDS011;11910;52.086;21.066;2022-10-16T11:25:23;11.65;;;10.45;;
23474;SDS011;11910;52.086;21.066;2022-10-16T11:33:55;22.73;;;10.60;;
23474;SDS011;11910;52.086;21.066;2022-10-16T11:36:39;11.95;;;10.25;;
23474;SDS011;11910;52.086;21.066;2022-10-16T11:39:30;11.63;;;9.68;;
23474;SDS011;11910;52.086;21.066;2022-10-16T11:44:55;15.25;;;9.57;;
23474;SDS011;11910;52.086;21.066;2022-10-16T11:48:02;12.27;;;9.43;;
23474;SDS011;11910;52.086;21.066;2022-10-16T11:50:53;11.98;;;10.10;;
23474;SDS011;11910;52.086;21.066;2022-10-16T11:56:11;12.45;;;9.73;;
23474;SDS011;11910;52.086;21.066;2022-10-16T11:58:51;10.63;;;9.25;;
23474;SDS011;11910;52.086;21.066;2022-10-16T12:01:31;11.38;;;9.73;;
23474;SDS011;11910;52.086;21.066;2022-10-16T12:07:08;13.48;;;9.05;;
23474;SDS011;11910;52.086;21.066;2022-10-16T12:09:39;17.10;;;9.02;;
23474;SDS011;11910;52.086;21.066;2022-10-16T12:15:01;10.82;;;9.00;;
23474;SDS011;11910;52.086;21.066;2022-10-16T12:17:42;12.80;;;9.77;;
23474;SDS011;11910;52.086;21.066;2022-10-16T12:22:36;12.43;;;9.65;;
23474;SDS011;11910;52.086;21.066;2022-10-16T12:28:06;13.32;;;9.57;;
23474;SDS011;11910;52.086;21.066;2022-10-16T12:31:19;12.98;;;9.18;;
23474;SDS011;11910;52.086;21.066;2022-10-16T12:33:41;11.30;;;9.65;;
23474;SDS011;11910;52.086;21.066;2022-10-16T12:36:26;11.57;;;8.93;;
23474;SDS011;11910;52.086;21.066;2022-10-16T12:38:54;10.60;;;9.38;;
23474;SDS011;11910;52.086;21.066;2022-10-16T12:41:30;13.93;;;9.13;;
23474;SDS011;11910;52.086;21.066;2022-10-16T12:43:58;13.38;;;9.38;;
23474;SDS011;11910;52.086;21.066;2022-10-16T12:46:47;12.10;;;9.57;;
23474;SDS011;11910;52.086;21.066;2022-10-16T12:51:37;10.77;;;9.45;;
23474;SDS011;11910;52.086;21.066;2022-10-16T12:54:10;12.90;;;9.93;;
23474;SDS011;11910;52.086;21.066;2022-10-16T12:59:13;11.77;;;9.68;;
23474;SDS011;11910;52.086;21.066;2022-10-16T13:05:02;11.45;;;8.88;;
23474;SDS011;11910;52.086;21.066;2022-10-16T13:13:02;11.35;;;9.52;;
23474;SDS011;11910;52.086;21.066;2022-10-16T13:18:40;11.50;;;9.73;;
23474;SDS011;11910;52.086;21.066;2022-10-16T13:26:49;11.75;;;9.70;;
23474;SDS011;11910;52.086;21.066;2022-10-16T13:29:21;11.70;;;10.00;;
23474;SDS011;11910;52.086;21.066;2022-10-16T13:31:47;11.95;;;9.35;;
23474;SDS011;11910;52.086;21.066;2022-10-16T13:34:18;12.25;;;9.05;;
23474;SDS011;11910;52.086;21.066;2022-10-16T13:36:49;10.77;;;9.25;;
23474;SDS011;11910;52.086;21.066;2022-10-16T13:39:29;14.27;;;9.50;;
23474;SDS011;11910;52.086;21.066;2022-10-16T13:44:27;13.57;;;9.65;;
23474;SDS011;11910;52.086;21.066;2022-10-16T13:47:00;11.82;;;9.48;;
23474;SDS011;11910;52.086;21.066;2022-10-16T13:49:27;12.63;;;10.00;;
23474;SDS011;11910;52.086;21.066;2022-10-16T13:51:56;14.38;;;9.85;;
23474;SDS011;11910;52.086;21.066;2022-10-16T13:54:23;14.93;;;10.02;;
23474;SDS011;11910;52.086;21.066;2022-10-16T13:56:50;12.68;;;10.20;;
23474;SDS011;11910;52.086;21.066;2022-10-16T14:05:07;15.00;;;10.77;;
23474;SDS011;11910;52.086;21.066;2022-10-16T14:07:35;14.60;;;10.32;;
23474;SDS011;11910;52.086;21.066;2022-10-16T14:10:06;12.80;;;10.40;;
23474;SDS011;11910;52.086;21.066;2022-10-16T14:12:43;13.70;;;11.07;;
23474;SDS011;11910;52.086;21.066;2022-10-16T14:15:16;13.23;;;10.00;;
23474;SDS011;11910;52.086;21.066;2022-10-16T14:17:44;14.50;;;10.38;;
23474;SDS011;11910;52.086;21.066;2022-10-16T14:20:12;13.43;;;10.27;;
23474;SDS011;11910;52.086;21.066;2022-10-16T14:22:43;14.23;;;10.02;;
23474;SDS011;11910;52.086;21.066;2022-10-16T14:27:43;15.98;;;10.30;;
23474;SDS011;11910;52.086;21.066;2022-10-16T14:30:18;12.10;;;10.30;;
23474;SDS011;11910;52.086;21.066;2022-10-16T14:32:57;16.73;;;10.45;;
23474;SDS011;11910;52.086;21.066;2022-10-16T14:35:26;17.10;;;10.60;;
23474;SDS011;11910;52.086;21.066;2022-10-16T14:37:57;14.23;;;10.57;;
23474;SDS011;11910;52.086;21.066;2022-10-16T14:40:25;15.38;;;11.38;;
23474;SDS011;11910;52.086;21.066;2022-10-16T14:42:53;13.00;;;11.27;;
23474;SDS011;11910;52.086;21.066;2022-10-16T14:45:20;14.25;;;11.73;;
23474;SDS011;11910;52.086;21.066;2022-10-16T14:47:49;14.70;;;11.70;;
23474;SDS011;11910;52.086;21.066;2022-10-16T14:50:18;14.43;;;12.13;;
23474;SDS011;11910;52.086;21.066;2022-10-16T14:52:44;15.95;;;11.20;;
23474;SDS011;11910;52.086;21.066;2022-10-16T14:55:10;12.35;;;10.43;;
23474;SDS011;11910;52.086;21.066;2022-10-16T14:57:36;14.63;;;10.95;;
23474;SDS011;11910;52.086;21.066;2022-10-16T15:00:09;12.40;;;10.93;;
23474;SDS011;11910;52.086;21.066;2022-10-16T15:02:40;13.52;;;10.73;;
23474;SDS011;11910;52.086;21.066;2022-10-16T15:05:12;15.27;;;11.50;;
23474;SDS011;11910;52.086;21.066;2022-10-16T15:07:44;13.23;;;10.60;;
23474;SDS011;11910;52.086;21.066;2022-10-16T15:10:11;12.80;;;10.68;;
23474;SDS011;11910;52.086;21.066;2022-10-16T15:12:40;15.38;;;11.18;;
23474;SDS011;11910;52.086;21.066;2022-10-16T15:17:41;13.45;;;11.30;;
23474;SDS011;11910;52.086;21.066;2022-10-16T15:20:06;13.60;;;11.80;;
23474;SDS011;11910;52.086;21.066;2022-10-16T15:22:32;17.25;;;11.93;;
23474;SDS011;11910;52.086;21.066;2022-10-16T15:24:58;16.83;;;12.55;;
23474;SDS011;11910;52.086;21.066;2022-10-16T15:27:23;15.55;;;12.07;;
23474;SDS011;11910;52.086;21.066;2022-10-16T15:29:49;15.48;;;12.82;;
23474;SDS011;11910;52.086;21.066;2022-10-16T15:32:14;14.65;;;13.25;;
23474;SDS011;11910;52.086;21.066;2022-10-16T15:34:40;16.23;;;12.57;;
23474;SDS011;11910;52.086;21.066;2022-10-16T15:37:05;16.55;;;12.98;;
23474;SDS011;11910;52.086;21.066;2022-10-16T15:39:31;20.73;;;14.32;;
23474;SDS011;11910;52.086;21.066;2022-10-16T15:41:57;21.33;;;14.93;;
23474;SDS011;11910;52.086;21.066;2022-10-16T15:44:22;16.52;;;13.65;;
23474;SDS011;11910;52.086;21.066;2022-10-16T15:46:50;18.55;;;14.18;;
23474;SDS011;11910;52.086;21.066;2022-10-16T15:49:19;18.00;;;13.93;;
23474;SDS011;11910;52.086;21.066;2022-10-16T15:51:44;20.20;;;14.18;;
23474;SDS011;11910;52.086;21.066;2022-10-16T15:54:11;21.73;;;15.20;;
23474;SDS011;11910;52.086;21.066;2022-10-16T15:56:36;17.63;;;14.00;;
23474;SDS011;11910;52.086;21.066;2022-10-16T15:59:02;17.13;;;14.52;;
23474;SDS011;11910;52.086;21.066;2022-10-16T16:01:33;15.23;;;13.63;;
23474;SDS011;11910;52.086;21.066;2022-10-16T16:04:00;16.02;;;14.23;;
23474;SDS011;11910;52.086;21.066;2022-10-16T16:06:25;20.58;;;14.95;;
23474;SDS011;11910;52.086;21.066;2022-10-16T16:08:51;20.10;;;15.23;;
23474;SDS011;11910;52.086;21.066;2022-10-16T16:11:19;22.17;;;15.52;;
23474;SDS011;11910;52.086;21.066;2022-10-16T16:13:45;18.73;;;15.00;;
23474;SDS011;11910;52.086;21.066;2022-10-16T16:16:12;17.83;;;15.15;;
23474;SDS011;11910;52.086;21.066;2022-10-16T16:18:39;20.05;;;15.63;;